Time;durP1;ratioP1;P1;durP2;ratioP2;P2;SDS_P1;SDS_P2;PMS_P1;PMS_P2;Temp;Humidity;BMP_temperature;BMP_pressure;BME280_temperature;BME280_humidity;BME280_pressure;Samples;Min_cycle;Max_cycle;Signal;HPM_P1;HPM_P2
2021/08/25 06:46:10;;;;;;;0.47;0.23;;;;;;;12.51;100.00;97931.34;1829935;78;21556;-61
2021/08/25 06:48:37;;;;;;;0.30;0.30;;;;;;;12.55;100.00;97931.55;1830237;78;21377;-64
2021/08/25 06:51:05;;;;;;;0.25;0.25;;;;;;;12.59;100.00;97930.63;1823799;77;20906;-61
2021/08/25 06:53:32;;;;;;;0.33;0.33;;;;;;;12.64;100.00;97931.06;1827464;78;20872;-62
2021/08/25 06:56:01;;;;;;;1.95;0.30;;;;;;;12.70;100.00;97931.17;1807467;78;21189;-62
2021/08/25 06:58:27;;;;;;;0.35;0.30;;;;;;;12.74;99.86;97936.97;1827824;78;20880;-62
2021/08/25 07:00:56;;;;;;;0.68;0.40;;;;;;;12.78;99.52;97937.98;1827812;78;20868;-63
2021/08/25 07:03:23;;;;;;;0.45;0.25;;;;;;;12.80;99.34;97934.97;1827801;78;20876;-64
2021/08/25 07:05:52;;;;;;;0.30;0.30;;;;;;;12.82;99.41;97932.22;1827884;78;20958;-64
2021/08/25 07:08:19;;;;;;;0.40;0.20;;;;;;;12.88;99.20;97938.28;1827310;78;21073;-65
2021/08/25 07:10:46;;;;;;;0.45;0.30;;;;;;;12.93;99.08;97938.93;1827353;78;20908;-65
2021/08/25 07:13:13;;;;;;;0.60;0.40;;;;;;;12.99;99.00;97935.03;1826787;78;20943;-66
2021/08/25 07:15:40;;;;;;;0.40;0.40;;;;;;;13.08;98.81;97941.03;1827987;78;21329;-66
2021/08/25 07:18:08;;;;;;;0.50;0.50;;;;;;;13.11;98.20;97939.88;1827960;78;20880;-65
2021/08/25 07:20:35;;;;;;;0.80;0.53;;;;;;;13.12;97.94;97936.08;1807510;78;21116;-65
2021/08/25 07:23:01;;;;;;;0.90;0.80;;;;;;;13.13;97.76;97943.05;1827848;78;20903;-64
2021/08/25 07:25:28;;;;;;;1.42;0.60;;;;;;;13.19;97.73;97945.08;1827705;78;20955;-64
2021/08/25 07:27:55;;;;;;;1.35;1.00;;;;;;;13.24;97.23;97942.23;1827825;78;21366;-65
2021/08/25 07:30:26;;;;;;;0.95;0.70;;;;;;;13.29;96.91;97944.25;1824503;78;20983;-65
2021/08/25 07:32:53;;;;;;;0.80;0.70;;;;;;;13.39;96.71;97948.03;1827569;78;21105;-65
2021/08/25 07:35:20;;;;;;;1.22;0.80;;;;;;;13.43;95.80;97948.19;1827202;78;20912;-66
2021/08/25 07:37:47;;;;;;;0.47;0.47;;;;;;;13.45;95.54;97952.16;1820505;78;20896;-66
2021/08/25 07:40:14;;;;;;;0.80;0.70;;;;;;;13.48;95.12;97950.20;1815652;78;21528;-65
2021/08/25 07:42:41;;;;;;;1.17;0.60;;;;;;;13.49;94.62;97955.05;1805136;77;21010;-65
2021/08/25 07:45:11;;;;;;;1.05;0.70;;;;;;;13.48;94.49;97959.63;1803737;79;21147;-64
2021/08/25 07:47:40;;;;;;;0.50;0.50;;;;;;;13.51;94.37;97960.36;1816132;78;21446;-62
2021/08/25 07:50:08;;;;;;;1.07;0.60;;;;;;;13.50;93.83;97958.75;1812125;77;20967;-65
2021/08/25 07:52:35;;;;;;;0.70;0.60;;;;;;;13.51;93.51;97956.86;1814432;78;21051;-65
2021/08/25 07:55:03;;;;;;;0.78;0.57;;;;;;;13.50;92.73;97966.03;1815167;79;21570;-65
2021/08/25 07:57:30;;;;;;;0.75;0.50;;;;;;;13.40;92.66;97967.66;1814213;79;22128;-64
2021/08/25 07:59:57;;;;;;;0.50;0.50;;;;;;;13.28;92.53;97971.47;1814352;78;21019;-64
2021/08/25 08:02:24;;;;;;;1.10;0.57;;;;;;;13.21;92.86;97969.77;1814301;79;20951;-64
2021/08/25 08:04:51;;;;;;;0.72;0.50;;;;;;;13.19;93.11;97959.30;1814604;79;21601;-62
2021/08/25 08:07:17;;;;;;;0.98;0.40;;;;;;;13.18;92.75;97964.98;1815141;79;20924;-65
2021/08/25 08:09:44;;;;;;;1.25;0.50;;;;;;;13.14;92.69;97964.02;1815976;79;21105;-64
2021/08/25 08:12:11;;;;;;;0.40;0.40;;;;;;;13.10;92.88;97970.55;1815886;79;20900;-64
2021/08/25 08:14:40;;;;;;;0.30;0.30;;;;;;;13.12;92.80;97967.57;1815870;78;20971;-66
2021/08/25 08:17:07;;;;;;;0.50;0.45;;;;;;;13.07;92.74;97966.35;1815575;79;21047;-66
2021/08/25 08:19:34;;;;;;;1.40;1.25;;;;;;;13.06;92.81;97962.06;1815922;79;20873;-66
2021/08/25 08:22:03;;;;;;;0.57;0.47;;;;;;;13.13;92.91;97966.45;1816163;79;21376;-64
2021/08/25 08:24:30;;;;;;;0.60;0.50;;;;;;;13.20;93.00;97968.96;1815954;79;20901;-64
2021/08/25 08:26:58;;;;;;;0.95;0.50;;;;;;;13.24;92.66;97965.89;1815802;79;20912;-68
2021/08/25 08:29:27;;;;;;;1.05;0.33;;;;;;;13.24;92.54;97967.23;1813251;77;20939;-68
2021/08/25 08:31:54;;;;;;;0.85;0.50;;;;;;;13.19;92.44;97968.70;1815956;79;20877;-67
2021/08/25 08:34:20;;;;;;;0.62;0.55;;;;;;;13.21;92.73;97973.25;1816147;79;21825;-64
2021/08/25 08:36:47;;;;;;;0.95;0.70;;;;;;;13.25;92.68;97967.49;1815762;78;20926;-65
2021/08/25 08:39:14;;;;;;;0.90;0.60;;;;;;;13.29;92.20;97969.80;1812911;79;20892;-65
2021/08/25 08:41:45;;;;;;;0.70;0.50;;;;;;;13.27;91.74;97969.86;1783565;79;21388;-65
2021/08/25 08:44:15;;;;;;;1.02;0.60;;;;;;;13.23;91.97;97967.02;1783389;80;21043;-64
2021/08/25 08:46:44;;;;;;;0.40;0.40;;;;;;;13.18;91.72;97964.45;1726738;82;20888;-65
2021/08/25 08:49:11;;;;;;;1.57;0.50;;;;;;;13.13;91.67;97959.19;1725998;82;20883;-64
2021/08/25 08:51:38;;;;;;;1.10;0.65;;;;;;;13.08;91.90;97962.00;1693356;82;20872;-64
2021/08/25 08:54:05;;;;;;;0.93;0.57;;;;;;;13.03;92.02;97962.89;1746110;82;20868;-63
2021/08/25 08:56:32;;;;;;;1.77;0.50;;;;;;;13.04;92.28;97963.69;1766783;80;20962;-64
2021/08/25 08:59:00;;;;;;;4.33;1.30;;;;;;;13.04;92.13;97961.00;1775657;80;21704;-64
2021/08/25 09:01:29;;;;;;;0.93;0.53;;;;;;;13.05;92.13;97965.27;1775881;80;21074;-63
2021/08/25 09:03:56;;;;;;;1.00;0.80;;;;;;;13.00;91.79;97963.49;1775331;80;20959;-64
2021/08/25 09:06:44;;;;;;;0.70;0.70;;;;;;;12.93;91.91;97967.16;1775706;80;21505;-64
2021/08/25 09:09:11;;;;;;;1.02;0.75;;;;;;;12.89;91.85;97966.73;1775726;80;21043;-64
2021/08/25 09:11:51;;;;;;;2.22;0.80;;;;;;;12.91;92.16;97967.22;1773797;79;21725;-63
2021/08/25 09:14:18;;;;;;;2.35;1.02;;;;;;;12.93;91.79;97975.80;1775960;80;21009;-64
2021/08/25 09:16:45;;;;;;;3.62;1.55;;;;;;;12.92;91.41;97968.82;1776986;80;21410;-65
2021/08/25 09:19:17;;;;;;;5.22;1.27;;;;;;;12.90;91.40;97974.52;1754493;79;20888;-64
2021/08/25 09:21:46;;;;;;;0.80;0.60;;;;;;;12.88;91.22;97969.19;1746499;82;20920;-65
2021/08/25 09:24:14;;;;;;;1.00;0.70;;;;;;;12.84;91.43;97977.60;1767549;80;21128;-63
2021/08/25 09:27:11;;;;;;;1.22;0.80;;;;;;;12.85;91.49;97975.17;1777073;80;20837;-66
2021/08/25 09:29:43;;;;;;;1.75;0.62;;;;;;;12.84;91.58;97981.09;1772038;80;20951;-63
2021/08/25 09:32:24;;;;;;;1.35;0.88;;;;;;;12.85;91.19;97980.55;1775330;80;21101;-64
2021/08/25 09:34:56;;;;;;;1.85;0.90;;;;;;;12.82;90.88;97983.84;1775600;80;21105;-63
2021/08/25 09:37:24;;;;;;;1.42;0.80;;;;;;;12.78;91.05;97983.66;1775433;79;21116;-64
2021/08/25 09:39:56;;;;;;;1.32;1.05;;;;;;;12.82;91.03;97979.80;1775817;80;21038;-63
2021/08/25 09:42:23;;;;;;;1.60;0.98;;;;;;;12.82;90.93;97979.26;1775636;80;21572;-64
2021/08/25 09:45:03;;;;;;;1.10;1.00;;;;;;;12.79;90.94;97976.38;1775776;80;20987;-64
2021/08/25 09:47:56;;;;;;;1.60;1.10;;;;;;;12.80;91.12;97979.31;1777048;80;20988;-63
2021/08/25 09:50:24;;;;;;;1.57;1.00;;;;;;;12.80;91.19;97983.34;1776195;80;21740;-63
2021/08/25 09:52:51;;;;;;;3.33;1.20;;;;;;;12.83;91.50;97984.09;1776188;80;21042;-63
2021/08/25 09:55:33;;;;;;;1.75;1.20;;;;;;;12.92;91.48;97990.33;1771506;79;21009;-65
2021/08/25 09:58:01;;;;;;;3.17;1.40;;;;;;;12.95;90.98;97991.06;1774134;80;20986;-64
2021/08/25 10:00:28;;;;;;;2.22;1.30;;;;;;;12.95;90.43;97981.66;1815772;79;21447;-64
2021/08/25 10:02:55;;;;;;;2.58;1.30;;;;;;;12.85;90.34;97990.76;1815768;79;21177;-64
2021/08/25 10:05:29;;;;;;;1.80;1.17;;;;;;;12.83;90.69;97992.16;1815289;78;20955;-64
2021/08/25 10:07:57;;;;;;;1.85;1.40;;;;;;;12.84;90.71;97983.78;1808759;77;20971;-64
2021/08/25 10:10:24;;;;;;;1.77;1.20;;;;;;;12.88;90.65;97982.63;1783654;80;20983;-63
2021/08/25 10:12:51;;;;;;;1.57;1.10;;;;;;;12.87;90.57;97982.38;1782713;80;20986;-64
2021/08/25 10:15:39;;;;;;;1.75;1.30;;;;;;;12.92;90.62;97983.61;1783491;79;21805;-64
2021/08/25 10:18:07;;;;;;;;;;;;;;;12.94;90.26;97990.81;1741419;81;20923;-64
2021/08/25 10:20:34;;;;;;;3.00;1.35;;;;;;;12.91;90.11;97983.34;1744822;82;20129;-64
2021/08/25 10:23:02;;;;;;;2.37;1.55;;;;;;;12.89;90.16;97985.55;1783645;79;20994;-64
2021/08/25 10:25:29;;;;;;;1.60;1.32;;;;;;;12.89;90.00;97990.92;1783742;79;20960;-66
2021/08/25 10:28:06;;;;;;;1.77;1.30;;;;;;;12.88;89.93;97988.02;1783792;80;21102;-65
2021/08/25 10:30:51;;;;;;;1.65;1.10;;;;;;;12.88;89.82;97988.78;1783628;80;20821;-62
2021/08/25 10:33:18;;;;;;;;;;;;;;;12.87;89.90;97993.12;1786275;80;20909;-63
2021/08/25 10:35:45;;;;;;;1.98;1.47;;;;;;;12.81;89.86;97995.13;1783739;80;20146;-63
2021/08/25 10:38:25;;;;;;;1.87;1.20;;;;;;;12.73;89.87;97996.41;1787762;80;20888;-65
2021/08/25 10:41:01;;;;;;;1.70;1.30;;;;;;;12.65;90.26;97993.89;1756590;81;21151;-63
2021/08/25 10:43:43;;;;;;;2.35;1.50;;;;;;;12.59;90.38;97993.77;1753351;81;20920;-60
2021/08/25 10:46:17;;;;;;;2.65;1.60;;;;;;;12.59;90.49;97994.31;1752282;81;20970;-64
2021/08/25 10:48:53;;;;;;;1.90;1.70;;;;;;;12.59;90.92;97995.12;1756904;81;20938;-65
2021/08/25 10:51:35;;;;;;;2.10;1.80;;;;;;;12.58;90.92;98000.77;1756990;81;21022;-64
2021/08/25 10:54:07;;;;;;;2.35;1.42;;;;;;;12.57;91.01;97998.66;1758045;80;21118;-63
2021/08/25 10:56:40;;;;;;;2.30;1.85;;;;;;;12.55;91.34;97998.71;1756413;81;21022;-64
2021/08/25 10:59:13;;;;;;;3.20;1.80;;;;;;;12.54;91.36;97994.42;1769343;80;20958;-65
2021/08/25 11:01:46;;;;;;;1.55;1.37;;;;;;;12.54;91.58;98002.48;1787800;80;20994;-65
2021/08/25 11:04:24;;;;;;;4.75;2.10;;;;;;;12.58;91.55;98000.77;1787095;80;20984;-66
2021/08/25 11:07:01;;;;;;;3.75;1.95;;;;;;;12.65;91.81;97995.78;1787137;80;21684;-63
2021/08/25 11:09:30;;;;;;;6.67;2.45;;;;;;;12.69;91.52;97991.41;1785140;80;20943;-66
2021/08/25 11:12:03;;;;;;;2.17;1.90;;;;;;;12.68;91.43;97990.61;1759803;80;21108;-65
2021/08/25 11:14:47;;;;;;;2.80;1.80;;;;;;;12.65;91.24;97990.41;1756684;80;21092;-66
2021/08/25 11:17:26;;;;;;;3.22;1.90;;;;;;;12.62;91.32;97998.55;1750612;81;21460;-66
2021/08/25 11:19:57;;;;;;;2.47;2.02;;;;;;;12.58;91.20;97990.02;1755300;81;21091;-66
2021/08/25 11:22:31;;;;;;;2.80;1.92;;;;;;;12.56;91.36;97989.53;1755498;81;20954;-67
2021/08/25 11:25:04;;;;;;;2.72;2.10;;;;;;;12.56;91.42;97988.20;1755587;81;20977;-68
2021/08/25 11:27:49;;;;;;;2.35;2.00;;;;;;;12.57;91.44;97993.83;1755327;81;21098;-65
2021/08/25 11:30:20;;;;;;;2.65;2.30;;;;;;;12.58;91.43;98010.98;1755085;81;21006;-67
2021/08/25 11:32:57;;;;;;;2.27;2.08;;;;;;;12.56;91.45;98001.09;1755192;81;21831;-67
2021/08/25 11:35:36;;;;;;;2.37;2.10;;;;;;;12.57;91.45;97998.66;1755120;81;21020;-67
2021/08/25 11:38:08;;;;;;;3.92;2.25;;;;;;;12.60;91.29;98003.98;1755603;80;21512;-67
2021/08/25 11:40:41;;;;;;;2.47;2.27;;;;;;;12.60;90.88;97999.95;1759543;81;21109;-66
2021/08/25 11:43:15;;;;;;;2.55;2.10;;;;;;;12.58;90.84;97992.72;1760196;81;21058;-67
2021/08/25 11:45:43;;;;;;;6.25;2.30;;;;;;;12.51;90.90;97990.98;1759950;81;21120;-66
2021/08/25 11:48:11;;;;;;;3.10;2.37;;;;;;;12.52;91.35;97988.56;1759946;81;20979;-67
2021/08/25 11:50:47;;;;;;;3.22;2.10;;;;;;;12.56;91.23;97992.23;1743640;82;21039;-66
2021/08/25 11:53:20;;;;;;;4.78;2.37;;;;;;;12.53;91.08;97984.80;1760559;80;20981;-67
2021/08/25 11:55:50;;;;;;;2.50;2.30;;;;;;;12.52;91.26;97989.91;1761834;81;21495;-67
2021/08/25 11:58:25;;;;;;;3.10;2.62;;;;;;;12.54;91.40;97985.02;1765920;81;21119;-65
2021/08/25 12:00:54;;;;;;;4.17;2.50;;;;;;;12.49;91.47;97989.16;1765974;81;20903;-65
2021/08/25 12:03:21;;;;;;;3.20;2.60;;;;;;;12.48;91.48;97991.08;1766009;81;20881;-66
2021/08/25 12:05:53;;;;;;;4.65;2.83;;;;;;;12.47;91.35;97982.75;1765978;81;21466;-66
2021/08/25 12:08:21;;;;;;;4.83;3.10;;;;;;;12.48;91.47;97986.24;1754705;81;21134;-68
2021/08/25 12:11:05;;;;;;;4.78;2.90;;;;;;;12.49;91.49;97986.47;1758371;80;21465;-64
2021/08/25 12:13:38;;;;;;;3.52;2.50;;;;;;;12.49;91.49;97980.55;1748517;81;21402;-67
2021/08/25 12:16:07;;;;;;;3.20;2.30;;;;;;;12.55;91.42;97985.28;1748637;81;20923;-66
2021/08/25 12:18:50;;;;;;;3.35;2.60;;;;;;;12.57;91.33;97988.45;1748471;81;21438;-65
2021/08/25 12:21:17;;;;;;;2.67;2.33;;;;;;;12.55;91.35;97985.28;1748636;82;21086;-66
2021/08/25 12:24:04;;;;;;;3.55;2.67;;;;;;;12.51;91.30;97985.61;1748386;81;21040;-65
2021/08/25 12:26:36;;;;;;;2.60;2.22;;;;;;;12.49;91.56;97985.93;1748521;82;21497;-67
2021/08/25 12:29:05;;;;;;;2.50;2.10;;;;;;;12.50;91.62;97982.70;1748669;82;21395;-65
2021/08/25 12:31:33;;;;;;;3.05;2.40;;;;;;;12.45;91.55;97985.49;1748665;82;20924;-67
2021/08/25 12:34:13;;;;;;;3.50;2.62;;;;;;;12.41;91.55;97975.11;1748595;81;20923;-65
2021/08/25 12:36:53;;;;;;;3.00;2.33;;;;;;;12.36;91.81;97982.16;1748573;81;21147;-66
2021/08/25 12:39:23;;;;;;;3.72;2.70;;;;;;;12.31;91.90;97985.53;1746260;82;21010;-66
2021/08/25 12:41:51;;;;;;;3.20;2.80;;;;;;;12.30;92.02;97976.67;1748616;82;20876;-65
2021/08/25 12:44:19;;;;;;;5.17;2.62;;;;;;;12.31;92.33;97976.13;1748613;82;21446;-66
2021/08/25 12:47:03;;;;;;;3.80;2.45;;;;;;;12.36;92.30;97977.36;1748638;82;20915;-66
2021/08/25 12:49:35;;;;;;;5.10;2.92;;;;;;;12.38;92.36;97974.37;1748508;81;21127;-67
2021/08/25 12:52:03;;;;;;;4.58;2.40;;;;;;;12.43;92.49;97974.27;1750866;81;20905;-66
2021/08/25 12:54:30;;;;;;;2.72;2.35;;;;;;;12.46;92.37;97972.32;1748108;81;21496;-64
2021/08/25 12:56:57;;;;;;;3.75;2.90;;;;;;;12.48;92.33;97964.21;1736913;81;20937;-67
2021/08/25 12:59:26;;;;;;;3.20;2.70;;;;;;;12.54;92.28;97966.22;1753953;81;21405;-66
2021/08/25 13:01:53;;;;;;;3.72;2.60;;;;;;;12.57;92.05;97965.08;1735507;82;21061;-66
2021/08/25 13:04:20;;;;;;;3.52;2.47;;;;;;;12.55;92.05;97964.59;1735567;82;20992;-66
2021/08/25 13:06:48;;;;;;;4.22;2.70;;;;;;;12.57;92.09;97961.59;1735467;82;20924;-66
2021/08/25 13:09:17;;;;;;;3.42;2.77;;;;;;;12.59;92.13;97960.73;1735664;82;21044;-66
2021/08/25 13:11:44;;;;;;;2.87;2.37;;;;;;;12.68;92.28;97957.56;1735060;82;21130;-67
2021/08/25 13:14:11;;;;;;;3.58;2.77;;;;;;;12.75;92.12;97957.39;1737730;81;21075;-66
2021/08/25 13:16:38;;;;;;;3.83;2.50;;;;;;;12.77;91.55;97959.76;1764349;81;21499;-66
2021/08/25 13:19:05;;;;;;;2.92;2.35;;;;;;;12.72;91.46;97953.16;1765986;81;20834;-67
2021/08/25 13:21:33;;;;;;;3.12;2.50;;;;;;;12.71;91.63;97956.96;1765711;81;21108;-66
2021/08/25 13:24:00;;;;;;;7.15;2.70;;;;;;;12.70;91.51;97955.36;1765419;81;21013;-67
2021/08/25 13:26:26;;;;;;;2.40;2.20;;;;;;;12.69;91.72;97947.06;1765585;81;21792;-66
2021/08/25 13:28:53;;;;;;;3.27;2.00;;;;;;;12.76;91.99;97954.16;1766097;81;20881;-67
2021/08/25 13:31:20;;;;;;;2.62;1.95;;;;;;;12.87;91.78;97955.50;1766057;81;21680;-68
2021/08/25 13:33:46;;;;;;;2.27;1.98;;;;;;;12.91;91.39;97950.55;1766132;81;21036;-67
2021/08/25 13:36:13;;;;;;;2.12;1.85;;;;;;;12.92;91.21;97948.66;1766135;81;21086;-66
2021/08/25 13:38:42;;;;;;;2.47;1.85;;;;;;;12.94;91.10;97951.83;1766021;81;21177;-67
2021/08/25 13:41:09;;;;;;;2.83;1.80;;;;;;;12.91;90.82;97946.52;1766133;81;20885;-66
2021/08/25 13:43:35;;;;;;;2.22;1.45;;;;;;;12.91;90.89;97949.20;1763092;80;20926;-67
2021/08/25 13:46:03;;;;;;;2.02;1.55;;;;;;;12.93;90.95;97948.91;1758862;81;20935;-65
2021/08/25 13:48:31;;;;;;;2.87;1.95;;;;;;;13.00;91.09;97943.91;1759015;81;20886;-66
2021/08/25 13:50:58;;;;;;;1.80;1.32;;;;;;;13.10;91.21;97945.00;1758859;81;21122;-65
2021/08/25 13:53:26;;;;;;;2.55;1.30;;;;;;;13.13;90.15;97947.63;1758785;81;20871;-66
2021/08/25 13:55:52;;;;;;;1.35;1.17;;;;;;;13.09;90.10;97939.40;1758818;81;20963;-66
2021/08/25 13:58:20;;;;;;;2.10;1.45;;;;;;;13.09;90.00;97943.98;1758693;81;20934;-66
2021/08/25 14:00:47;;;;;;;1.92;1.50;;;;;;;13.07;90.10;97943.50;1758959;81;21582;-66
2021/08/25 14:03:14;;;;;;;1.52;1.20;;;;;;;13.06;90.28;97938.66;1754828;81;21134;-65
2021/08/25 14:05:41;;;;;;;2.47;1.40;;;;;;;13.07;90.16;97929.50;1758230;81;20876;-66
2021/08/25 14:08:08;;;;;;;1.70;1.20;;;;;;;13.09;90.30;97934.02;1758909;81;21444;-64
2021/08/25 14:10:34;;;;;;;2.02;1.60;;;;;;;13.11;90.37;97943.91;1758884;81;20900;-65
2021/08/25 14:13:03;;;;;;;2.62;1.42;;;;;;;13.10;90.25;97938.28;1759076;81;21004;-66
2021/08/25 14:15:33;;;;;;;2.58;1.70;;;;;;;13.05;90.32;97933.00;1759162;81;21720;-64
2021/08/25 14:18:02;;;;;;;2.08;1.50;;;;;;;13.03;90.46;97929.28;1758816;81;20921;-63
2021/08/25 14:20:31;;;;;;;2.20;1.65;;;;;;;13.03;90.56;97927.94;1759302;80;21465;-64
2021/08/25 14:22:58;;;;;;;2.62;1.70;;;;;;;12.99;90.49;97940.95;1758442;81;21501;-62
2021/08/25 14:25:25;;;;;;;1.40;1.20;;;;;;;12.96;90.57;97930.27;1758928;81;20919;-63
2021/08/25 14:27:52;;;;;;;2.17;1.40;;;;;;;12.94;90.73;97933.81;1758319;81;21891;-63
2021/08/25 14:30:19;;;;;;;1.57;1.20;;;;;;;12.95;90.84;97925.97;1758808;81;20880;-61
2021/08/25 14:32:46;;;;;;;2.02;1.52;;;;;;;12.95;90.75;97925.97;1758992;81;21400;-62
2021/08/25 14:35:12;;;;;;;2.62;1.30;;;;;;;12.97;90.93;97920.31;1758872;81;20924;-63
2021/08/25 14:37:39;;;;;;;1.70;1.60;;;;;;;12.98;91.01;97919.19;1758848;81;20924;-63
2021/08/25 14:40:08;;;;;;;2.02;1.60;;;;;;;12.99;90.90;97926.17;1761192;81;21118;-63
2021/08/25 14:42:35;;;;;;;2.12;1.80;;;;;;;12.92;90.97;97921.78;1791465;80;20930;-63
2021/08/25 14:45:03;;;;;;;1.98;1.70;;;;;;;12.87;91.25;97923.24;1791542;80;21374;-63
2021/08/25 14:47:29;;;;;;;1.95;1.75;;;;;;;12.84;91.42;97931.36;1754226;81;21003;-59
2021/08/25 14:49:56;;;;;;;3.20;1.67;;;;;;;12.85;91.61;97922.76;1768916;81;20931;-62
2021/08/25 14:52:22;;;;;;;1.60;1.50;;;;;;;12.85;91.60;97921.41;1791442;80;21103;-65
2021/08/25 14:54:49;;;;;;;1.95;1.45;;;;;;;12.82;91.75;97913.95;1791379;80;21480;-64
2021/08/25 14:57:16;;;;;;;1.40;1.30;;;;;;;12.82;91.96;97912.61;1754154;81;21407;-63
2021/08/25 14:59:42;;;;;;;1.82;1.42;;;;;;;12.84;92.05;97914.44;1769058;81;20912;-63
2021/08/25 15:02:09;;;;;;;1.90;1.50;;;;;;;12.86;92.19;97914.92;1791617;80;21057;-63
2021/08/25 15:04:36;;;;;;;2.37;1.90;;;;;;;12.90;92.20;97918.61;1791603;80;21060;-63
